createdAt,value
2022-10-19T00:00:55.350Z,80.80
2022-10-19T00:04:06.296Z,80.37
2022-10-19T00:07:11.034Z,80.52
2022-10-19T00:10:16.344Z,80.34
2022-10-19T00:13:24.636Z,80.66
2022-10-19T00:16:32.017Z,81.10
2022-10-19T00:19:40.634Z,82.36
2022-10-19T00:22:46.260Z,83.92
2022-10-19T00:25:51.866Z,83.74
2022-10-19T00:28:59.449Z,84.31
2022-10-19T00:32:05.676Z,83.96
2022-10-19T00:35:13.204Z,82.21
2022-10-19T00:38:19.830Z,82.17
2022-10-19T00:41:26.288Z,82.46
2022-10-19T00:44:36.511Z,81.94
2022-10-19T00:47:43.180Z,82.08
2022-10-19T00:50:49.111Z,82.97
2022-10-19T00:53:54.845Z,82.40
2022-10-19T00:57:01.619Z,82.36
2022-10-19T01:00:07.941Z,82.50
2022-10-19T01:03:13.599Z,82.58
2022-10-19T01:06:19.535Z,82.50
2022-10-19T01:09:25.375Z,82.29
2022-10-19T01:12:41.845Z,83.10
2022-10-19T01:16:08.305Z,83.18
2022-10-19T01:19:17.946Z,83.44
2022-10-19T01:22:41.967Z,83.85
2022-10-19T01:26:05.518Z,83.34
2022-10-19T01:29:44.804Z,84.05
2022-10-19T01:33:10.705Z,84.31
2022-10-19T01:36:40.003Z,84.63
2022-10-19T01:40:11.199Z,84.40
2022-10-19T01:43:51.524Z,83.76
2022-10-19T01:47:05.454Z,84.42
2022-10-19T01:50:30.548Z,84.19
2022-10-19T01:53:37.033Z,84.49
2022-10-19T01:56:42.403Z,84.85
2022-10-19T01:59:47.753Z,83.49
2022-10-19T02:02:58.010Z,84.27
2022-10-19T02:06:03.342Z,83.42
2022-10-19T02:09:09.844Z,83.66
2022-10-19T02:12:18.676Z,83.93
2022-10-19T02:15:27.617Z,83.79
2022-10-19T02:18:36.176Z,83.92
2022-10-19T02:21:42.671Z,84.00
2022-10-19T02:24:48.519Z,84.08
2022-10-19T02:27:54.347Z,85.17
2022-10-19T02:31:00.146Z,86.14
2022-10-19T02:34:05.924Z,86.61
2022-10-19T02:37:13.031Z,87.05
2022-10-19T02:40:19.955Z,86.97
2022-10-19T02:43:29.759Z,86.87
2022-10-19T02:46:57.209Z,87.34
2022-10-19T02:50:02.687Z,86.87
2022-10-19T02:53:08.450Z,86.91
2022-10-19T02:56:14.498Z,86.69
2022-10-19T02:59:20.300Z,86.16
2022-10-19T03:02:25.641Z,85.41
2022-10-19T03:05:31.437Z,85.33
2022-10-19T03:08:37.314Z,86.51
2022-10-19T03:11:43.739Z,86.51
2022-10-19T03:14:50.299Z,86.47
2022-10-19T03:17:56.494Z,86.48
2022-10-19T03:21:01.995Z,86.78
2022-10-19T03:24:07.401Z,87.32
2022-10-19T03:27:13.441Z,87.17
2022-10-19T03:30:21.134Z,87.40
2022-10-19T03:33:26.542Z,87.53
2022-10-19T03:36:43.067Z,87.15
2022-10-19T03:39:47.915Z,87.61
2022-10-19T03:42:54.319Z,87.42
2022-10-19T03:46:01.301Z,87.38
2022-10-19T03:49:06.974Z,87.93
2022-10-19T03:52:13.228Z,88.61
2022-10-19T03:55:19.127Z,88.84
2022-10-19T03:58:24.542Z,89.02
2022-10-19T04:01:39.799Z,89.11
2022-10-19T04:04:44.984Z,88.77
2022-10-19T04:07:50.979Z,88.06
2022-10-19T04:10:56.734Z,87.63
2022-10-19T04:14:05.189Z,86.99
2022-10-19T04:17:11.327Z,86.49
2022-10-19T04:20:17.811Z,87.74
2022-10-19T04:23:24.074Z,88.39
2022-10-19T04:26:29.815Z,88.63
2022-10-19T04:29:30.849Z,88.77
2022-10-19T04:32:35.967Z,88.20
2022-10-19T04:35:42.450Z,87.94
2022-10-19T04:38:48.822Z,88.18
2022-10-19T04:41:47.722Z,88.85
2022-10-19T04:44:54.353Z,88.66
2022-10-19T04:48:01.459Z,88.29
2022-10-19T04:51:10.101Z,87.84
2022-10-19T04:54:17.013Z,87.40
2022-10-19T04:57:22.545Z,87.60
2022-10-19T05:00:29.630Z,87.65
2022-10-19T05:03:35.571Z,88.06
2022-10-19T05:06:35.461Z,88.59
2022-10-19T05:09:42.720Z,88.48
2022-10-19T05:12:49.959Z,88.86
2022-10-19T05:15:55.586Z,88.96
2022-10-19T05:19:08.388Z,89.49
2022-10-19T05:22:13.777Z,90.10
2022-10-19T05:25:21.457Z,90.51
2022-10-19T05:28:28.276Z,90.69
2022-10-19T05:31:27.735Z,89.75
2022-10-19T05:34:20.989Z,89.57
2022-10-19T05:37:26.120Z,89.63
2022-10-19T05:40:31.711Z,90.44
2022-10-19T05:43:29.405Z,91.27
2022-10-19T05:46:27.172Z,91.42
2022-10-19T05:49:34.837Z,91.14
2022-10-19T05:52:40.268Z,92.23
2022-10-19T05:55:42.403Z,91.39
2022-10-19T05:58:48.112Z,91.61
2022-10-19T06:01:53.927Z,91.44
2022-10-19T06:04:59.343Z,91.02
2022-10-19T06:07:59.799Z,91.56
2022-10-19T06:11:07.642Z,91.63
2022-10-19T06:14:14.412Z,92.12
2022-10-19T06:17:20.352Z,91.85
2022-10-19T06:20:26.850Z,92.09
2022-10-19T06:23:34.428Z,92.44
2022-10-19T06:26:40.201Z,92.65
2022-10-19T06:29:45.253Z,92.92
2022-10-19T06:32:50.465Z,93.34
2022-10-19T06:35:55.920Z,93.74
2022-10-19T06:39:09.972Z,93.53
2022-10-19T06:42:16.563Z,93.52
2022-10-19T06:45:30.206Z,93.94
2022-10-19T06:48:34.926Z,93.50
2022-10-19T06:51:41.877Z,92.83
2022-10-19T06:54:48.622Z,92.04
2022-10-19T06:57:54.373Z,91.92
2022-10-19T07:00:59.784Z,91.41
2022-10-19T07:04:06.826Z,90.57
2022-10-19T07:07:12.792Z,89.88
2022-10-19T07:10:18.621Z,87.54
2022-10-19T07:13:24.532Z,86.17
2022-10-19T07:16:31.311Z,85.50
2022-10-19T07:19:42.254Z,84.58
2022-10-19T07:22:48.020Z,83.77
2022-10-19T07:25:54.263Z,83.14
2022-10-19T07:29:00.895Z,82.96
2022-10-19T07:32:07.473Z,82.06
2022-10-19T07:35:13.349Z,80.53
2022-10-19T07:38:19.978Z,79.81
2022-10-19T07:41:29.814Z,79.35
2022-10-19T07:44:36.932Z,78.87
2022-10-19T07:47:43.396Z,78.04
2022-10-19T07:50:51.235Z,75.66
2022-10-19T07:53:57.312Z,74.87
2022-10-19T07:57:02.395Z,74.09
2022-10-19T08:00:08.420Z,73.74
2022-10-19T08:06:26.302Z,72.61
2022-10-19T08:09:52.166Z,72.09
2022-10-19T08:12:39.536Z,71.92
2022-10-19T08:15:47.285Z,71.70
2022-10-19T08:18:55.691Z,71.36
2022-10-19T08:22:02.165Z,67.60
2022-10-19T08:25:08.506Z,66.62
2022-10-19T08:28:17.121Z,65.88
2022-10-19T08:31:35.396Z,64.97
2022-10-19T08:34:41.910Z,64.65
2022-10-19T08:37:47.229Z,63.90
2022-10-19T08:40:53.298Z,63.98
2022-10-19T08:44:13.523Z,63.38
2022-10-19T08:48:00.996Z,63.30
2022-10-19T08:50:59.151Z,60.97
2022-10-19T08:54:12.306Z,60.80
2022-10-19T08:57:27.420Z,58.62
2022-10-19T09:03:57.848Z,56.55
2022-10-19T09:07:19.733Z,54.71
2022-10-19T09:10:49.586Z,53.94
2022-10-19T09:14:05.225Z,54.46
2022-10-19T09:17:07.323Z,55.61
2022-10-19T09:20:15.789Z,55.60
2022-10-19T09:23:46.289Z,53.15
2022-10-19T09:26:58.372Z,52.44
2022-10-19T09:30:12.816Z,52.96
2022-10-19T09:33:18.496Z,51.39
2022-10-19T09:36:39.218Z,51.80
2022-10-19T09:39:33.692Z,51.32
2022-10-19T09:42:46.650Z,51.51
2022-10-19T09:46:13.860Z,51.97
2022-10-19T09:49:15.922Z,50.95
2022-10-19T09:52:44.369Z,50.59
2022-10-19T09:55:57.714Z,49.09
2022-10-19T09:59:07.288Z,49.14
2022-10-19T10:02:31.733Z,50.05
2022-10-19T10:05:55.422Z,50.00
2022-10-19T10:09:08.113Z,50.66
2022-10-19T10:12:15.770Z,50.13
2022-10-19T10:15:22.615Z,48.88
2022-10-19T10:18:31.108Z,47.67
2022-10-19T10:21:42.930Z,47.49
2022-10-19T10:24:50.236Z,46.99
2022-10-19T10:27:55.991Z,47.43
2022-10-19T10:31:02.357Z,47.30
2022-10-19T10:34:28.402Z,47.91
2022-10-19T10:37:31.106Z,48.41
2022-10-19T10:40:43.157Z,48.56
2022-10-19T10:47:16.343Z,49.60
2022-10-19T10:50:24.155Z,50.18
2022-10-19T10:53:54.838Z,50.48
2022-10-19T10:56:48.447Z,50.28
2022-10-19T11:00:10.273Z,51.05
2022-10-19T11:03:23.158Z,52.07
2022-10-19T11:06:29.582Z,51.73
2022-10-19T11:09:54.934Z,51.72
2022-10-19T11:13:08.185Z,52.32
2022-10-19T11:16:33.483Z,53.30
2022-10-19T11:19:53.281Z,53.65
2022-10-19T11:23:19.024Z,53.78
2022-10-19T11:26:44.087Z,54.46
2022-10-19T11:30:20.867Z,54.43
2022-10-19T11:33:58.859Z,55.15
2022-10-19T11:37:12.415Z,54.68
2022-10-19T11:41:06.080Z,54.29
2022-10-19T11:43:58.973Z,53.85
2022-10-19T11:47:36.933Z,54.81
2022-10-19T11:51:20.881Z,54.63
2022-10-19T11:54:44.104Z,54.48
2022-10-19T11:57:57.021Z,54.20
2022-10-19T12:01:13.768Z,52.77
2022-10-19T12:04:50.813Z,50.70
2022-10-19T12:08:11.021Z,48.94
2022-10-19T12:11:24.578Z,52.65
2022-10-19T12:14:38.368Z,52.73
2022-10-19T12:17:47.326Z,52.45
2022-10-19T12:21:03.775Z,51.42
2022-10-19T12:24:09.603Z,51.19
2022-10-19T12:27:14.795Z,50.29
2022-10-19T12:30:29.507Z,49.26
2022-10-19T12:33:36.562Z,49.06
2022-10-19T12:37:19.341Z,48.50
2022-10-19T12:40:43.958Z,48.38
2022-10-19T12:44:12.710Z,48.37
2022-10-19T12:47:28.435Z,49.09
2022-10-19T12:50:38.470Z,48.91
2022-10-19T12:53:51.434Z,49.37
2022-10-19T12:57:05.253Z,49.72
2022-10-19T13:00:12.126Z,49.70
2022-10-19T13:03:26.237Z,50.09
2022-10-19T13:06:41.791Z,50.78
2022-10-19T13:09:52.799Z,50.94
2022-10-19T13:13:00.603Z,50.57
2022-10-19T13:16:07.252Z,51.36
2022-10-19T13:19:32.476Z,51.75
2022-10-19T13:22:43.114Z,51.77
2022-10-19T13:25:53.121Z,51.98
2022-10-19T13:29:08.042Z,51.30
2022-10-19T13:32:34.964Z,51.25
2022-10-19T13:35:49.487Z,51.18
2022-10-19T13:39:17.255Z,51.33
2022-10-19T13:42:40.994Z,50.54
2022-10-19T13:45:47.772Z,58.57
2022-10-19T13:49:32.887Z,58.84
2022-10-19T13:52:45.877Z,57.65
2022-10-19T13:56:15.087Z,57.41
2022-10-19T14:00:02.098Z,57.57
2022-10-19T14:03:40.650Z,57.42
2022-10-19T14:06:58.885Z,58.39
2022-10-19T14:10:33.061Z,58.52
2022-10-19T14:13:36.421Z,58.71
2022-10-19T14:16:42.612Z,57.89
2022-10-19T14:19:59.040Z,58.76
2022-10-19T14:23:05.029Z,59.52
2022-10-19T14:26:12.993Z,59.77
2022-10-19T14:29:17.919Z,58.86
2022-10-19T14:32:25.459Z,59.26
2022-10-19T14:35:47.813Z,59.56
2022-10-19T14:38:55.326Z,59.26
2022-10-19T14:42:03.028Z,60.57
2022-10-19T14:45:08.896Z,60.58
2022-10-19T14:48:23.916Z,61.55
2022-10-19T14:52:05.662Z,62.86
2022-10-19T14:55:12.776Z,62.81
2022-10-19T14:58:18.910Z,62.07
2022-10-19T15:01:24.655Z,64.21
2022-10-19T15:04:36.199Z,64.22
2022-10-19T15:07:57.119Z,63.18
2022-10-19T15:11:02.885Z,63.62
2022-10-19T15:14:16.375Z,62.54
2022-10-19T15:17:31.884Z,62.26
2022-10-19T15:21:08.270Z,62.01
2022-10-19T15:24:06.128Z,63.30
2022-10-19T15:27:12.558Z,63.05
2022-10-19T15:30:35.062Z,62.65
2022-10-19T15:33:41.070Z,62.67
2022-10-19T15:36:47.721Z,62.87
2022-10-19T15:39:53.318Z,62.08
2022-10-19T15:42:59.315Z,62.82
2022-10-19T15:46:06.179Z,62.31
2022-10-19T15:49:18.344Z,61.43
2022-10-19T15:52:31.705Z,62.03
2022-10-19T15:55:36.962Z,62.14
2022-10-19T15:58:41.846Z,64.50
2022-10-19T16:01:51.115Z,63.29
2022-10-19T16:04:54.654Z,63.33
2022-10-19T16:07:59.564Z,63.53
2022-10-19T16:11:05.944Z,64.16
2022-10-19T16:14:12.205Z,64.33
2022-10-19T16:17:18.259Z,64.17
2022-10-19T16:20:26.760Z,64.87
2022-10-19T16:23:31.945Z,65.47
2022-10-19T16:26:39.611Z,66.25
2022-10-19T16:29:47.603Z,65.73
2022-10-19T16:32:54.506Z,67.76
2022-10-19T16:36:00.646Z,70.42
2022-10-19T16:39:05.958Z,69.60
2022-10-19T16:42:11.423Z,70.25
2022-10-19T16:45:11.029Z,71.69
2022-10-19T16:48:21.845Z,71.12
2022-10-19T16:51:40.992Z,71.28
2022-10-19T16:54:47.060Z,71.36
2022-10-19T16:57:53.676Z,73.76
2022-10-19T17:01:00.933Z,74.77
2022-10-19T17:04:07.307Z,75.87
2022-10-19T17:07:12.596Z,76.47
2022-10-19T17:10:19.452Z,77.41
2022-10-19T17:13:25.388Z,77.67
2022-10-19T17:16:30.974Z,78.58
2022-10-19T17:19:36.117Z,79.37
2022-10-19T17:22:43.146Z,80.06
2022-10-19T17:25:48.578Z,81.35
2022-10-19T17:28:56.394Z,82.60
2022-10-19T17:32:01.477Z,82.60
2022-10-19T17:35:09.915Z,82.72
2022-10-19T17:38:14.796Z,82.93
2022-10-19T17:41:30.152Z,82.55
2022-10-19T17:44:36.951Z,81.73
2022-10-19T17:47:43.188Z,82.04
2022-10-19T17:50:49.642Z,83.29
2022-10-19T17:53:54.677Z,83.56
2022-10-19T17:57:00.837Z,83.07
2022-10-19T18:00:09.562Z,83.64
2022-10-19T18:03:15.876Z,83.44
2022-10-19T18:06:26.917Z,83.68
2022-10-19T18:09:32.956Z,83.56
2022-10-19T18:12:39.331Z,84.53
2022-10-19T18:15:44.764Z,86.30
2022-10-19T18:18:52.671Z,86.61
2022-10-19T18:21:59.943Z,86.92
2022-10-19T18:25:06.061Z,87.84
2022-10-19T18:28:13.061Z,87.59
2022-10-19T18:31:37.597Z,88.38
2022-10-19T18:34:43.868Z,89.60
2022-10-19T18:37:43.091Z,90.17
2022-10-19T18:40:51.760Z,90.66
2022-10-19T18:43:57.310Z,89.97
2022-10-19T18:47:03.799Z,90.60
2022-10-19T18:50:09.749Z,89.98
2022-10-19T18:53:16.437Z,90.29
2022-10-19T18:56:24.383Z,90.49
2022-10-19T18:59:30.173Z,90.91
2022-10-19T19:02:46.332Z,90.65
2022-10-19T19:05:44.226Z,90.55
2022-10-19T19:08:51.483Z,90.70
2022-10-19T19:12:00.465Z,91.18
2022-10-19T19:15:00.462Z,93.09
2022-10-19T19:18:09.158Z,94.65
2022-10-19T19:21:16.957Z,94.52
2022-10-19T19:24:22.703Z,93.87
2022-10-19T19:27:32.110Z,93.92
2022-10-19T19:30:37.037Z,93.81
2022-10-19T19:33:42.877Z,93.54
2022-10-19T19:36:50.579Z,93.17
2022-10-19T19:39:57.380Z,93.63
2022-10-19T19:43:03.763Z,93.49
2022-10-19T19:46:18.905Z,93.65
2022-10-19T19:49:28.022Z,94.54
2022-10-19T19:52:40.134Z,93.92
2022-10-19T19:55:42.529Z,93.53
2022-10-19T19:58:49.083Z,92.66
2022-10-19T20:01:56.298Z,92.52
2022-10-19T20:05:01.246Z,93.23
2022-10-19T20:08:07.481Z,92.62
2022-10-19T20:11:23.349Z,92.63
2022-10-19T20:14:30.464Z,93.10
2022-10-19T20:17:36.853Z,93.15
2022-10-19T20:20:42.704Z,92.24
2022-10-19T20:23:47.530Z,92.18
2022-10-19T20:26:53.410Z,92.20
2022-10-19T20:30:02.536Z,92.99
2022-10-19T20:33:09.032Z,94.48
2022-10-19T20:36:23.803Z,94.54
2022-10-19T20:39:29.995Z,95.18
2022-10-19T20:42:35.237Z,95.03
2022-10-19T20:45:43.494Z,94.32
2022-10-19T20:48:50.850Z,95.37
2022-10-19T20:51:57.470Z,93.96
2022-10-19T20:55:04.264Z,93.85
2022-10-19T20:58:10.868Z,94.64
2022-10-19T21:01:28.737Z,93.10
2022-10-19T21:04:34.638Z,93.52
2022-10-19T21:07:41.239Z,93.49
2022-10-19T21:10:47.814Z,93.96
2022-10-19T21:13:53.784Z,94.59
2022-10-19T21:17:00.748Z,94.89
2022-10-19T21:20:06.908Z,95.13
2022-10-19T21:23:13.826Z,94.99
2022-10-19T21:26:19.280Z,94.07
2022-10-19T21:29:25.735Z,94.65
2022-10-19T21:32:32.755Z,93.84
2022-10-19T21:35:39.192Z,93.75
2022-10-19T21:38:45.867Z,93.70
2022-10-19T21:41:52.463Z,94.34
2022-10-19T21:45:01.455Z,94.20
2022-10-19T21:48:08.583Z,94.17
2022-10-19T21:51:13.524Z,94.13
2022-10-19T21:54:28.657Z,92.99
2022-10-19T21:57:34.722Z,93.52
2022-10-19T22:00:40.832Z,93.62
2022-10-19T22:03:46.786Z,93.65
2022-10-19T22:06:52.138Z,94.32
2022-10-19T22:09:58.201Z,95.21
2022-10-19T22:13:04.139Z,95.52
2022-10-19T22:16:02.769Z,96.13
2022-10-19T22:19:02.532Z,96.45
2022-10-19T22:22:08.966Z,94.50
2022-10-19T22:25:14.624Z,93.25
2022-10-19T22:28:19.475Z,93.05
2022-10-19T22:31:25.529Z,93.31
2022-10-19T22:34:32.681Z,93.48
2022-10-19T22:37:38.325Z,93.35
2022-10-19T22:40:44.369Z,93.40
2022-10-19T22:43:50.204Z,92.96
2022-10-19T22:46:56.552Z,93.17
2022-10-19T22:50:02.385Z,93.21
2022-10-19T22:53:02.358Z,93.16
2022-10-19T22:55:56.955Z,93.15
2022-10-19T22:59:02.706Z,92.95
2022-10-19T23:02:09.001Z,92.56
2022-10-19T23:05:14.072Z,92.28
2022-10-19T23:08:19.606Z,92.92
2022-10-19T23:11:25.575Z,92.23
2022-10-19T23:14:32.008Z,91.25
2022-10-19T23:17:38.730Z,90.45
2022-10-19T23:20:45.068Z,92.65
2022-10-19T23:23:50.979Z,93.37
2022-10-19T23:26:56.820Z,93.06
2022-10-19T23:30:03.479Z,93.43
2022-10-19T23:33:08.806Z,93.49
2022-10-19T23:36:29.249Z,93.14
2022-10-19T23:39:35.876Z,93.58
2022-10-19T23:42:41.373Z,93.09
2022-10-19T23:45:46.886Z,93.44
2022-10-19T23:48:53.798Z,93.81
2022-10-19T23:52:01.126Z,94.08
2022-10-19T23:55:07.891Z,93.59
2022-10-19T23:58:13.374Z,93.56
